Terminal Aerodrome Forecast
Issued by NWS Springfield, MO

Home | Current Version | Previous Version | Text Only | Print | Product List | Glossary On
Versions: 1 2 3 4 5 6 7 8 9 10 11 12 13 14 15 16 17
000
FTUS43 KSGF 241120
TAFSGF
TAF
KSGF 241120Z 2412/2512 15010KT P6SM SKC WS020/19045KT
     FM241500 17026G38KT P6SM VCTS BKN200CB
     FM241800 18021G31KT P6SM SHRA OVC060
      TEMPO 2418/2421 4SM TS OVC025CB
     FM242100 17016G26KT 4SM -SHRA VCTS OVC015CB
     FM250200 16010KT 5SM -SHRA VCTS BKN025CB
     FM250600 16008KT 6SM SHRA VCTS BKN060CB
     FM250900 18008KT P6SM BKN060
     FM251100 20008KT P6SM BKN030=

USA.gov is the U.S. government's official web portal to all federal, state and local government web resources and services.